Time;durP1;ratioP1;P1;durP2;ratioP2;P2;SDS_P1;SDS_P2;PMS_P1;PMS_P2;Temp;Humidity;BMP_temperature;BMP_pressure;BME280_temperature;BME280_humidity;BME280_pressure;Samples;Min_cycle;Max_cycle;Signal;HPM_P1;HPM_P2
2022/04/10 00:01:39;;;;;;;2.80;1.30;;;30.30;98.90;;;;;;4978804;28;20417;-82
2022/04/10 00:04:06;;;;;;;3.30;1.15;;;29.90;98.90;;;;;;4976391;28;20065;-79
2022/04/10 00:06:34;;;;;;;4.03;0.95;;;29.40;98.20;;;;;;4990632;28;20089;-78
2022/04/10 00:09:04;;;;;;;2.17;0.80;;;29.10;98.70;;;;;;4987923;28;20037;-78
2022/04/10 00:11:31;;;;;;;2.92;0.80;;;28.60;99.30;;;;;;4984340;28;20026;-77
2022/04/10 00:13:59;;;;;;;6.90;1.15;;;28.30;99.40;;;;;;4974130;28;20126;-77
2022/04/10 00:16:27;;;;;;;2.05;0.60;;;28.10;99.10;;;;;;4970106;28;20117;-78
2022/04/10 00:18:54;;;;;;;2.78;0.80;;;27.40;99.90;;;;;;4983114;28;20037;-78
2022/04/10 00:21:22;;;;;;;3.25;1.38;;;27.80;99.90;;;;;;4976244;28;20405;-78
2022/04/10 00:23:49;;;;;;;4.75;0.80;;;27.80;99.70;;;;;;4984058;28;20026;-77
2022/04/10 00:26:16;;;;;;;2.17;0.93;;;27.10;99.90;;;;;;4978366;28;20516;-77
2022/04/10 00:28:44;;;;;;;4.25;1.00;;;26.30;99.90;;;;;;4972052;28;20031;-78
2022/04/10 00:31:11;;;;;;;7.18;1.88;;;26.10;99.90;;;;;;4982981;28;20050;-78
2022/04/10 00:33:38;;;;;;;2.25;0.88;;;26.70;99.90;;;;;;4973680;28;20070;-79
2022/04/10 00:36:06;;;;;;;3.20;0.50;;;27.30;99.90;;;;;;4972321;28;20026;-78
2022/04/10 00:38:33;;;;;;;1.30;0.50;;;26.90;99.90;;;;;;4980228;28;20508;-79
2022/04/10 00:41:01;;;;;;;2.65;0.45;;;27.00;99.90;;;;;;4982164;28;20045;-78
2022/04/10 00:43:34;;;;;;;3.20;1.00;;;27.30;99.90;;;;;;4986147;28;20389;-79
2022/04/10 00:46:02;;;;;;;1.80;0.80;;;27.10;99.90;;;;;;4971706;28;20031;-78
2022/04/10 00:48:29;;;;;;;3.00;0.70;;;27.80;99.90;;;;;;4972163;28;20165;-81
2022/04/10 00:53:43;;;;;;;2.63;0.65;;;28.50;99.40;;;;;;4982930;28;20080;-78
2022/04/10 00:56:11;;;;;;;4.75;0.50;;;28.70;99.00;;;;;;4975319;28;20038;-80
2022/04/10 00:58:39;;;;;;;2.33;0.90;;;28.60;99.00;;;;;;4980359;28;20038;-82
2022/04/10 01:01:06;;;;;;;4.68;0.55;;;28.80;99.30;;;;;;4973106;28;20054;-79
2022/04/10 01:03:33;;;;;;;2.05;0.75;;;29.30;99.70;;;;;;4969574;28;20115;-80
2022/04/10 01:06:01;;;;;;;2.80;0.82;;;29.80;98.50;;;;;;4971652;28;20129;-78
2022/04/10 01:08:28;;;;;;;1.90;0.40;;;29.90;97.40;;;;;;4986355;28;20409;-80
2022/04/10 01:10:55;;;;;;;2.20;0.65;;;30.30;97.00;;;;;;4977529;28;20500;-77
2022/04/10 01:13:24;;;;;;;3.35;0.57;;;30.30;97.00;;;;;;4972741;28;20116;-80
2022/04/10 01:15:51;;;;;;;2.95;0.50;;;30.00;97.10;;;;;;4973672;28;20027;-77
2022/04/10 01:18:20;;;;;;;4.63;0.60;;;29.30;97.60;;;;;;4973416;28;20030;-79
2022/04/10 01:20:47;;;;;;;1.98;0.60;;;29.30;97.50;;;;;;4971462;28;20050;-80
2022/04/10 01:23:15;;;;;;;2.58;0.90;;;28.90;98.40;;;;;;4967168;28;20113;-78
2022/04/10 01:25:43;;;;;;;1.95;0.50;;;29.10;97.80;;;;;;4969641;28;20083;-80
2022/04/10 01:28:14;;;;;;;3.35;0.60;;;29.30;97.40;;;;;;4968551;28;20440;-80
2022/04/10 01:30:43;;;;;;;2.95;0.60;;;29.60;97.20;;;;;;4969756;28;20517;-79
2022/04/10 01:33:10;;;;;;;2.38;1.05;;;29.80;97.10;;;;;;4969991;28;20066;-78
2022/04/10 01:35:38;;;;;;;3.78;0.60;;;29.60;96.40;;;;;;4968055;28;20058;-78
2022/04/10 01:38:07;;;;;;;4.13;1.80;;;29.80;96.00;;;;;;4972202;28;20030;-82
2022/04/10 01:40:35;;;;;;;1.35;0.60;;;30.00;96.60;;;;;;4971107;28;20153;-79
2022/04/10 01:43:03;;;;;;;2.53;0.38;;;29.90;95.40;;;;;;4969466;28;20419;-79
2022/04/10 01:45:30;;;;;;;2.65;0.60;;;29.70;96.80;;;;;;4966253;28;20042;-78
2022/04/10 01:47:58;;;;;;;5.13;1.08;;;29.60;95.60;;;;;;4970885;28;20027;-78
2022/04/10 01:50:25;;;;;;;3.38;0.63;;;29.80;96.50;;;;;;4975277;28;20034;-79
2022/04/10 01:52:53;;;;;;;1.98;0.55;;;29.60;95.90;;;;;;4972830;28;20045;-81
2022/04/10 01:55:20;;;;;;;4.75;0.75;;;29.60;96.30;;;;;;4975546;28;20030;-80
2022/04/10 01:57:47;;;;;;;0.63;0.45;;;29.20;96.70;;;;;;4972481;28;20569;-80
2022/04/10 02:00:15;;;;;;;3.17;0.57;;;29.00;96.30;;;;;;4970388;28;20060;-82
2022/04/10 02:02:42;;;;;;;2.95;0.88;;;29.10;95.90;;;;;;4975749;28;20038;-78
2022/04/10 02:05:10;;;;;;;3.22;0.60;;;28.90;96.20;;;;;;4974383;28;20433;-78
2022/04/10 02:07:38;;;;;;;4.03;0.80;;;28.90;96.50;;;;;;4970083;28;20037;-82
2022/04/10 02:10:06;;;;;;;2.03;0.40;;;28.90;96.20;;;;;;4973514;28;20038;-81
2022/04/10 02:12:33;;;;;;;1.17;0.30;;;28.80;95.40;;;;;;4973603;28;20026;-76
2022/04/10 02:15:01;;;;;;;3.70;0.40;;;28.30;95.40;;;;;;4970713;28;20065;-75
2022/04/10 02:17:28;;;;;;;1.98;0.43;;;28.40;95.80;;;;;;4977838;28;20045;-76
2022/04/10 02:19:55;;;;;;;2.85;0.70;;;28.60;95.50;;;;;;4974889;28;20129;-77
2022/04/10 02:22:23;;;;;;;1.65;0.50;;;28.80;96.00;;;;;;4974860;28;20026;-77
2022/04/10 02:24:53;;;;;;;3.40;0.50;;;28.80;96.80;;;;;;4971445;28;20473;-77
2022/04/10 02:27:21;;;;;;;1.38;0.40;;;28.70;95.90;;;;;;4971454;28;20108;-77
2022/04/10 02:29:48;;;;;;;2.78;0.57;;;28.80;95.80;;;;;;4975474;28;20035;-75
2022/04/10 02:32:15;;;;;;;1.30;0.30;;;28.90;95.50;;;;;;4976181;28;20033;-78
2022/04/10 02:34:42;;;;;;;4.63;0.57;;;29.30;95.40;;;;;;4985970;28;20026;-78
2022/04/10 02:37:10;;;;;;;2.25;1.00;;;29.40;94.40;;;;;;5000639;28;20083;-76
2022/04/10 02:39:38;;;;;;;3.90;0.60;;;28.70;95.70;;;;;;4996591;28;20037;-76
2022/04/10 02:42:06;;;;;;;2.58;0.60;;;28.70;96.20;;;;;;4978592;28;20884;-76
2022/04/10 02:44:33;;;;;;;1.90;0.38;;;29.00;96.10;;;;;;4971130;28;20037;-76
2022/04/10 02:47:01;;;;;;;2.15;0.52;;;29.20;95.40;;;;;;4970287;28;20572;-76
2022/04/10 02:49:28;;;;;;;2.08;0.40;;;29.30;95.60;;;;;;4969649;28;20027;-78
2022/04/10 02:51:55;;;;;;;2.53;0.75;;;29.30;95.50;;;;;;4972847;28;20112;-79
2022/04/10 02:54:22;;;;;;;4.28;0.70;;;29.40;94.60;;;;;;4970335;28;20085;-80
2022/04/10 02:56:50;;;;;;;1.90;0.40;;;29.60;96.10;;;;;;4972775;28;20065;-77
2022/04/10 02:59:17;;;;;;;1.83;0.28;;;29.60;95.90;;;;;;4965607;28;20041;-78
2022/04/10 03:01:44;;;;;;;2.20;0.38;;;29.80;94.30;;;;;;4968515;28;20054;-79
2022/04/10 03:04:12;;;;;;;2.13;0.50;;;29.90;93.20;;;;;;4971658;28;20490;-79
2022/04/10 03:06:39;;;;;;;3.78;0.57;;;29.90;93.20;;;;;;4972708;28;20121;-78
2022/04/10 03:09:08;;;;;;;2.15;0.32;;;29.60;93.70;;;;;;4966468;28;20038;-77
2022/04/10 03:11:35;;;;;;;0.90;0.30;;;29.70;93.10;;;;;;4970050;28;20088;-78
2022/04/10 03:14:03;;;;;;;0.40;0.38;;;29.70;93.50;;;;;;4971077;28;20026;-78
2022/04/10 03:16:30;;;;;;;2.72;0.50;;;29.70;93.50;;;;;;4967759;28;20026;-77
2022/04/10 03:18:57;;;;;;;4.57;1.25;;;29.60;94.30;;;;;;4970171;28;20388;-79
2022/04/10 03:21:25;;;;;;;0.52;0.38;;;29.60;93.90;;;;;;4973042;28;20171;-75
2022/04/10 03:23:52;;;;;;;1.70;0.32;;;29.40;93.90;;;;;;4969738;28;20045;-77
2022/04/10 03:26:19;;;;;;;1.83;0.52;;;29.60;94.30;;;;;;4975192;28;20035;-79
2022/04/10 03:28:47;;;;;;;2.40;0.60;;;29.40;94.50;;;;;;4970612;28;20033;-78
2022/04/10 03:31:14;;;;;;;3.97;0.60;;;29.40;95.10;;;;;;4970632;28;20085;-79
2022/04/10 03:33:42;;;;;;;2.13;0.65;;;29.50;94.70;;;;;;4975902;28;21938;-78
2022/04/10 03:36:09;;;;;;;2.13;0.60;;;29.20;94.40;;;;;;4971217;28;20509;-78
2022/04/10 03:38:36;;;;;;;2.67;1.10;;;29.10;95.00;;;;;;4970935;28;20030;-78
2022/04/10 03:41:03;;;;;;;4.28;2.05;;;29.00;94.70;;;;;;4971983;28;20034;-77
2022/04/10 03:43:32;;;;;;;0.95;0.43;;;28.90;95.00;;;;;;4970701;28;20037;-77
2022/04/10 03:46:00;;;;;;;2.47;0.60;;;28.90;94.30;;;;;;4969160;28;20050;-77
2022/04/10 03:48:27;;;;;;;2.97;0.70;;;28.80;94.90;;;;;;4968861;28;20106;-77
2022/04/10 03:50:55;;;;;;;1.70;0.77;;;28.90;94.30;;;;;;4969755;28;20111;-77
2022/04/10 03:53:23;;;;;;;2.65;0.70;;;28.90;94.10;;;;;;4969245;28;20026;-77
2022/04/10 03:55:51;;;;;;;2.20;1.13;;;29.10;94.10;;;;;;4968409;28;20023;-77
2022/04/10 03:58:18;;;;;;;1.27;0.30;;;29.10;94.40;;;;;;4966423;28;20030;-77
2022/04/10 04:00:47;;;;;;;4.80;1.80;;;29.10;93.70;;;;;;4969250;28;20040;-77
2022/04/10 04:03:15;;;;;;;2.80;0.88;;;29.10;94.50;;;;;;4968819;28;20133;-77
2022/04/10 04:05:42;;;;;;;3.22;0.82;;;29.00;94.00;;;;;;4973977;28;20033;-76
2022/04/10 04:08:10;;;;;;;2.58;0.80;;;29.00;94.50;;;;;;4970060;28;20121;-77
2022/04/10 04:10:37;;;;;;;2.10;0.60;;;28.90;93.60;;;;;;4971662;28;20110;-76
2022/04/10 04:13:05;;;;;;;3.47;1.25;;;28.70;93.90;;;;;;4973599;28;20023;-76
2022/04/10 04:15:32;;;;;;;0.82;0.30;;;28.80;94.20;;;;;;4977047;28;20026;-76
2022/04/10 04:17:59;;;;;;;1.77;0.60;;;28.90;93.70;;;;;;4976417;28;20065;-75
2022/04/10 04:20:27;;;;;;;1.92;0.50;;;28.90;93.70;;;;;;4977225;28;20030;-76
2022/04/10 04:22:54;;;;;;;5.32;0.60;;;28.80;93.80;;;;;;4974734;28;20027;-76
2022/04/10 04:25:22;;;;;;;1.02;0.45;;;28.90;93.30;;;;;;4972616;28;20422;-77
2022/04/10 04:27:49;;;;;;;1.27;0.82;;;28.80;92.90;;;;;;4977147;28;20043;-77
2022/04/10 04:30:16;;;;;;;0.55;0.30;;;28.80;93.40;;;;;;4981004;28;20439;-77
2022/04/10 04:32:44;;;;;;;4.03;1.02;;;28.90;92.70;;;;;;4974200;28;20027;-76
2022/04/10 04:35:12;;;;;;;2.13;0.35;;;28.80;92.90;;;;;;4971967;28;20378;-76
2022/04/10 04:37:42;;;;;;;0.90;0.40;;;28.70;93.40;;;;;;4973540;28;20441;-77
2022/04/10 04:40:11;;;;;;;1.75;0.35;;;28.70;92.80;;;;;;4974137;28;20033;-77
2022/04/10 04:42:39;;;;;;;1.98;0.30;;;28.50;92.60;;;;;;4975409;28;20114;-77
2022/04/10 04:45:06;;;;;;;2.25;0.52;;;28.30;92.00;;;;;;4972452;28;20022;-77
2022/04/10 04:47:34;;;;;;;1.17;0.20;;;28.20;92.50;;;;;;4977369;28;20023;-77
2022/04/10 04:50:01;;;;;;;0.45;0.20;;;28.30;92.50;;;;;;4982084;28;20031;-77
2022/04/10 04:52:28;;;;;;;0.32;0.32;;;28.50;92.70;;;;;;4986192;28;20034;-77
2022/04/10 04:54:56;;;;;;;0.73;0.10;;;28.60;92.70;;;;;;4972690;28;20105;-76
2022/04/10 04:57:23;;;;;;;1.17;0.50;;;28.60;92.40;;;;;;4980276;28;20712;-77
2022/04/10 04:59:50;;;;;;;0.63;0.40;;;28.60;93.20;;;;;;4972235;28;20027;-76
2022/04/10 05:02:18;;;;;;;1.95;0.30;;;28.50;93.00;;;;;;4970907;28;20105;-76
2022/04/10 05:04:45;;;;;;;1.42;0.30;;;28.50;92.90;;;;;;4971441;28;20425;-77
2022/04/10 05:07:12;;;;;;;1.20;0.55;;;28.30;92.20;;;;;;4986497;28;20058;-77
2022/04/10 05:09:39;;;;;;;0.75;0.20;;;28.10;92.70;;;;;;4971861;28;20122;-77
2022/04/10 05:12:08;;;;;;;3.45;0.50;;;27.90;92.60;;;;;;4982068;28;20038;-77
2022/04/10 05:14:35;;;;;;;1.35;0.35;;;27.80;93.00;;;;;;4972102;28;20351;-77
2022/04/10 05:17:03;;;;;;;4.50;0.50;;;27.70;93.00;;;;;;4978361;28;20114;-78
2022/04/10 05:19:30;;;;;;;1.85;0.30;;;27.80;93.10;;;;;;4971681;28;20041;-77
2022/04/10 05:21:57;;;;;;;1.83;0.35;;;27.90;93.20;;;;;;4972267;28;20022;-77
2022/04/10 05:24:25;;;;;;;2.03;0.30;;;28.00;93.60;;;;;;4984835;28;20042;-77
2022/04/10 05:26:52;;;;;;;1.63;0.25;;;28.00;93.10;;;;;;4982819;28;20038;-77
2022/04/10 05:29:19;;;;;;;1.95;0.55;;;28.20;92.60;;;;;;4975761;28;20031;-77
2022/04/10 05:31:47;;;;;;;4.85;0.77;;;28.30;92.50;;;;;;4979667;28;20054;-75
2022/04/10 05:34:14;;;;;;;1.75;0.40;;;28.30;92.90;;;;;;4980891;28;20094;-77
2022/04/10 05:36:41;;;;;;;2.15;0.55;;;28.40;93.60;;;;;;4983140;28;20034;-77
2022/04/10 05:39:09;;;;;;;2.05;0.82;;;28.30;92.80;;;;;;4984976;28;20499;-78
2022/04/10 05:41:36;;;;;;;8.23;0.77;;;28.20;92.80;;;;;;4989938;28;20049;-77
2022/04/10 05:44:03;;;;;;;0.95;0.30;;;28.10;92.90;;;;;;4980989;28;20030;-78
2022/04/10 05:46:31;;;;;;;1.27;0.47;;;28.10;93.20;;;;;;4978297;28;20047;-77
2022/04/10 05:48:58;;;;;;;2.83;0.50;;;28.30;93.40;;;;;;4976033;28;20352;-77
2022/04/10 05:51:26;;;;;;;2.67;1.17;;;28.40;93.90;;;;;;4975148;28;20035;-76
2022/04/10 05:53:53;;;;;;;4.28;1.25;;;28.60;94.60;;;;;;4974222;28;20481;-77
2022/04/10 05:56:20;;;;;;;4.72;1.00;;;28.50;95.50;;;;;;4974647;28;20533;-77
2022/04/10 05:58:47;;;;;;;2.67;0.93;;;28.50;96.00;;;;;;4988773;28;20125;-77
2022/04/10 06:01:15;;;;;;;1.00;0.70;;;28.50;96.90;;;;;;4977875;28;20035;-77
2022/04/10 06:03:42;;;;;;;5.22;1.52;;;28.50;97.10;;;;;;4984916;28;20023;-77
2022/04/10 06:06:10;;;;;;;2.30;0.80;;;28.30;97.10;;;;;;4982502;28;20485;-77
2022/04/10 06:08:37;;;;;;;2.67;1.52;;;28.20;97.40;;;;;;4985737;28;20022;-77
2022/04/10 06:11:04;;;;;;;2.75;0.90;;;28.10;97.50;;;;;;4975095;28;20509;-77
2022/04/10 06:13:33;;;;;;;3.33;1.52;;;28.00;97.50;;;;;;4988697;28;20050;-77
2022/04/10 06:16:00;;;;;;;1.63;0.95;;;27.90;97.50;;;;;;4979022;28;20085;-75
2022/04/10 06:18:27;;;;;;;3.50;0.82;;;27.90;97.90;;;;;;4980016;28;20035;-75
2022/04/10 06:20:54;;;;;;;2.28;0.90;;;27.80;97.40;;;;;;4976236;28;20023;-76
2022/04/10 06:23:23;;;;;;;3.28;0.70;;;27.70;97.20;;;;;;4981113;28;20030;-76
2022/04/10 06:25:51;;;;;;;3.78;1.50;;;27.70;98.30;;;;;;4975253;28;20114;-76
2022/04/10 06:28:18;;;;;;;2.58;1.00;;;27.70;98.40;;;;;;4977772;28;20037;-76
2022/04/10 06:30:45;;;;;;;2.65;0.80;;;27.60;98.10;;;;;;4981729;28;20111;-76
2022/04/10 06:33:16;;;;;;;4.75;1.02;;;27.60;98.40;;;;;;4974040;28;20070;-76
2022/04/10 06:35:44;;;;;;;3.78;0.63;;;27.40;99.00;;;;;;4978628;28;20034;-76
2022/04/10 06:38:12;;;;;;;1.90;1.13;;;27.30;98.20;;;;;;4974727;28;20058;-75
2022/04/10 06:40:39;;;;;;;2.03;0.95;;;27.00;98.50;;;;;;4995778;28;20023;-76
2022/04/10 06:43:08;;;;;;;3.05;1.23;;;26.80;99.00;;;;;;5009633;28;20014;-76
2022/04/10 06:45:35;;;;;;;4.75;1.02;;;26.60;99.10;;;;;;5001665;28;20043;-76
2022/04/10 06:48:02;;;;;;;3.47;0.90;;;26.30;99.50;;;;;;4990762;28;20031;-76
2022/04/10 06:50:30;;;;;;;4.05;0.90;;;26.20;99.70;;;;;;4981293;28;20022;-78
2022/04/10 06:52:57;;;;;;;4.07;0.90;;;26.10;99.90;;;;;;4974236;28;20081;-77
2022/04/10 06:55:24;;;;;;;2.40;0.80;;;26.00;99.90;;;;;;4986280;28;20030;-77
2022/04/10 06:57:52;;;;;;;3.33;1.20;;;25.80;99.90;;;;;;4974787;28;20106;-77
2022/04/10 07:00:19;;;;;;;3.38;1.17;;;25.70;99.90;;;;;;4991918;28;20077;-77
2022/04/10 07:02:48;;;;;;;4.85;1.15;;;25.70;99.90;;;;;;4983303;28;20064;-76
2022/04/10 07:05:15;;;;;;;2.15;0.60;;;25.60;99.90;;;;;;4985846;28;20037;-76
2022/04/10 07:07:43;;;;;;;2.78;0.77;;;25.60;99.90;;;;;;4981037;28;20065;-76
2022/04/10 07:10:10;;;;;;;3.80;0.90;;;25.50;99.90;;;;;;4975573;28;20027;-76
2022/04/10 07:12:37;;;;;;;3.30;0.85;;;25.40;99.90;;;;;;4980534;28;20509;-75
2022/04/10 07:15:05;;;;;;;4.18;1.27;;;25.30;99.90;;;;;;4993162;28;20018;-77
2022/04/10 07:17:32;;;;;;;3.60;1.13;;;25.20;99.90;;;;;;4991294;28;20088;-77
2022/04/10 07:20:00;;;;;;;4.97;1.05;;;25.00;99.90;;;;;;4992025;28;20041;-75
2022/04/10 07:25:12;;;;;;;4.32;1.83;;;24.80;99.90;;;;;;4987986;28;20036;-77
2022/04/10 07:27:40;;;;;;;2.58;1.20;;;24.80;99.90;;;;;;4990116;28;20050;-76
2022/04/10 07:30:08;;;;;;;5.85;1.40;;;24.60;99.90;;;;;;4983726;28;20026;-76
2022/04/10 07:32:37;;;;;;;4.10;1.05;;;24.60;99.90;;;;;;4990200;28;20098;-76
2022/04/10 07:35:05;;;;;;;5.05;1.95;;;24.40;99.90;;;;;;4990754;28;20420;-75
2022/04/10 07:37:33;;;;;;;2.97;0.90;;;24.30;99.90;;;;;;4990671;28;20503;-75
2022/04/10 07:40:02;;;;;;;2.15;0.60;;;24.30;99.90;;;;;;4982703;28;20500;-76
2022/04/10 07:42:29;;;;;;;7.95;1.55;;;24.20;99.90;;;;;;4975075;28;20118;-77
2022/04/10 07:44:59;;;;;;;2.47;0.88;;;24.10;99.90;;;;;;4973488;28;20041;-77
2022/04/10 07:47:26;;;;;;;4.57;1.00;;;24.10;99.90;;;;;;4977091;28;20043;-77
2022/04/10 07:49:56;;;;;;;4.18;1.73;;;24.00;99.90;;;;;;4972756;28;20389;-75
2022/04/10 07:52:25;;;;;;;5.40;1.52;;;24.00;99.90;;;;;;4982658;28;20030;-75
2022/04/10 07:54:52;;;;;;;6.45;1.10;;;23.90;99.90;;;;;;4975364;28;20064;-76
2022/04/10 07:57:20;;;;;;;5.95;1.10;;;23.90;99.90;;;;;;4982039;28;20029;-76
2022/04/10 07:59:48;;;;;;;5.32;0.90;;;23.80;99.90;;;;;;4973633;28;20035;-76
2022/04/10 08:02:15;;;;;;;3.65;1.63;;;23.70;99.90;;;;;;4979439;28;20427;-77
2022/04/10 08:04:42;;;;;;;4.53;0.60;;;23.70;99.90;;;;;;4975277;28;20030;-77
2022/04/10 08:07:09;;;;;;;1.83;0.93;;;23.60;99.90;;;;;;4987881;28;20485;-77
2022/04/10 08:09:37;;;;;;;2.67;0.90;;;23.50;99.90;;;;;;4985979;28;20026;-78
2022/04/10 08:12:04;;;;;;;3.75;0.75;;;23.50;99.90;;;;;;4977901;28;20033;-77
2022/04/10 08:14:32;;;;;;;3.75;1.05;;;23.50;99.90;;;;;;4988507;28;20062;-76
2022/04/10 08:16:59;;;;;;;3.63;0.90;;;23.40;99.90;;;;;;4974084;28;20419;-75
2022/04/10 08:19:26;;;;;;;3.38;1.65;;;23.30;99.90;;;;;;4980513;28;20061;-77
2022/04/10 08:21:54;;;;;;;3.22;0.85;;;23.20;99.90;;;;;;4974910;28;20035;-76
2022/04/10 08:24:21;;;;;;;4.03;1.38;;;23.20;99.90;;;;;;4974856;28;20038;-76
2022/04/10 08:26:48;;;;;;;4.22;0.82;;;23.20;99.90;;;;;;4972698;28;20038;-77
2022/04/10 08:29:15;;;;;;;4.10;1.30;;;23.10;99.90;;;;;;4971487;28;20031;-77
2022/04/10 08:31:43;;;;;;;4.53;1.13;;;23.00;99.90;;;;;;4979884;28;20069;-77
2022/04/10 08:34:10;;;;;;;4.75;0.95;;;22.90;99.90;;;;;;4982255;28;20047;-77
2022/04/10 08:36:39;;;;;;;4.40;1.13;;;22.90;99.90;;;;;;4973508;28;20049;-77
2022/04/10 08:39:07;;;;;;;6.40;0.85;;;22.80;99.90;;;;;;4972549;28;20421;-77
2022/04/10 08:41:37;;;;;;;7.45;1.30;;;22.80;99.90;;;;;;4968713;28;20027;-77
2022/04/10 08:44:05;;;;;;;4.68;0.93;;;22.80;99.90;;;;;;4970873;28;20019;-76
2022/04/10 08:46:33;;;;;;;5.43;1.25;;;22.70;99.90;;;;;;4972902;28;20046;-76
2022/04/10 08:49:01;;;;;;;5.82;2.08;;;22.60;99.90;;;;;;4970725;28;20489;-76
2022/04/10 08:51:31;;;;;;;6.57;1.90;;;22.60;99.90;;;;;;4986566;28;20039;-77
2022/04/10 08:54:00;;;;;;;6.55;1.75;;;22.60;99.90;;;;;;4979223;28;20062;-78
2022/04/10 08:56:27;;;;;;;5.38;1.00;;;22.60;99.90;;;;;;4980085;28;20389;-77
2022/04/10 08:58:55;;;;;;;4.22;1.17;;;22.50;99.90;;;;;;4987919;28;20477;-77
2022/04/10 09:01:22;;;;;;;4.10;1.52;;;22.50;99.90;;;;;;4979651;28;20379;-77
2022/04/10 09:03:50;;;;;;;6.28;2.17;;;22.40;99.90;;;;;;4973036;28;20031;-78
2022/04/10 09:06:17;;;;;;;3.60;0.80;;;22.40;99.90;;;;;;4978969;28;20125;-76
2022/04/10 09:08:45;;;;;;;4.93;1.20;;;22.30;99.90;;;;;;4988162;28;20382;-77
2022/04/10 09:11:13;;;;;;;4.75;0.80;;;22.30;99.90;;;;;;4989473;28;20428;-77
2022/04/10 09:13:49;;;;;;;4.82;1.15;;;22.20;99.90;;;;;;4977664;28;20025;-76
2022/04/10 09:16:23;;;;;;;7.38;1.40;;;22.10;99.90;;;;;;4991224;28;20359;-76
2022/04/10 09:18:52;;;;;;;5.22;1.70;;;22.10;99.90;;;;;;4988372;28;20035;-76
2022/04/10 09:21:23;;;;;;;3.67;1.08;;;22.10;99.90;;;;;;4989986;28;20077;-77
2022/04/10 09:23:58;;;;;;;3.67;1.50;;;22.00;99.90;;;;;;4984478;28;20104;-78
2022/04/10 09:26:42;;;;;;;5.22;1.52;;;21.90;99.90;;;;;;4991505;28;20044;-77
2022/04/10 09:29:10;;;;;;;4.03;1.33;;;21.90;99.90;;;;;;4986966;28;20026;-77
2022/04/10 09:31:38;;;;;;;3.55;1.10;;;21.90;99.90;;;;;;4972987;28;20031;-77
2022/04/10 09:34:10;;;;;;;2.70;1.20;;;21.80;99.90;;;;;;4968836;28;20062;-76
2022/04/10 09:36:43;;;;;;;5.47;1.48;;;21.70;99.90;;;;;;4972013;28;20041;-75
2022/04/10 09:39:13;;;;;;;8.02;1.45;;;21.70;99.90;;;;;;4974860;28;20452;-78
2022/04/10 09:41:42;;;;;;;8.82;1.35;;;21.70;99.90;;;;;;4975350;28;20041;-76
2022/04/10 09:44:17;;;;;;;4.75;1.45;;;21.60;99.90;;;;;;4970334;28;20369;-77
2022/04/10 09:46:56;;;;;;;2.58;1.13;;;21.60;99.90;;;;;;4972055;28;21289;-77
2022/04/10 09:49:24;;;;;;;4.35;1.05;;;21.60;99.90;;;;;;4974243;28;20019;-77
2022/04/10 09:52:04;;;;;;;7.65;1.60;;;21.60;99.90;;;;;;4976270;28;20046;-76
2022/04/10 09:54:35;;;;;;;3.60;0.93;;;21.60;99.90;;;;;;4970758;28;20520;-77
2022/04/10 09:57:05;;;;;;;6.10;1.33;;;21.50;99.90;;;;;;4969129;28;20481;-75
2022/04/10 09:59:49;;;;;;;5.47;1.00;;;21.50;99.90;;;;;;4968328;28;20042;-75
2022/04/10 10:02:18;;;;;;;10.82;1.13;;;21.40;99.90;;;;;;4974612;28;20113;-76
2022/04/10 10:04:47;;;;;;;5.43;1.52;;;21.40;99.90;;;;;;4976286;28;20038;-76
2022/04/10 10:07:21;;;;;;;5.28;1.48;;;21.40;99.90;;;;;;4988170;28;20046;-76
2022/04/10 10:09:51;;;;;;;4.10;1.80;;;21.30;99.90;;;;;;4973219;28;20027;-77
2022/04/10 10:12:22;;;;;;;6.57;2.00;;;21.30;99.90;;;;;;4974798;28;20047;-76
2022/04/10 10:14:50;;;;;;;5.22;1.55;;;21.20;99.90;;;;;;4976842;28;20467;-76
2022/04/10 10:17:18;;;;;;;2.67;1.60;;;21.20;99.90;;;;;;4986601;28;20057;-76
2022/04/10 10:19:46;;;;;;;4.38;2.00;;;21.20;99.90;;;;;;4975152;28;20031;-75
2022/04/10 10:22:15;;;;;;;10.45;1.38;;;21.10;99.90;;;;;;4980977;28;20117;-77
2022/04/10 10:24:56;;;;;;;4.18;2.15;;;21.00;99.90;;;;;;4986696;28;20044;-76
2022/04/10 10:28:00;;;;;;;6.18;1.33;;;21.00;99.90;;;;;;4993208;28;20049;-76
2022/04/10 10:30:56;;;;;;;2.08;0.90;;;20.90;99.90;;;;;;4972522;28;22192;-76
2022/04/10 10:33:25;;;;;;;4.45;0.77;;;20.90;99.90;;;;;;4983920;28;20042;-76
2022/04/10 10:36:00;;;;;;;4.95;1.95;;;20.90;99.90;;;;;;4976769;28;20118;-74
2022/04/10 10:38:32;;;;;;;5.05;1.00;;;20.80;99.90;;;;;;4985742;28;20117;-76
2022/04/10 10:41:18;;;;;;;4.30;1.30;;;20.80;99.90;;;;;;4985229;28;20469;-76
2022/04/10 10:43:46;;;;;;;6.75;1.00;;;20.80;99.90;;;;;;4981056;28;20070;-76
2022/04/10 10:46:34;;;;;;;4.70;1.08;;;20.70;99.90;;;;;;4984382;28;20034;-74
2022/04/10 10:49:21;;;;;;;2.63;0.90;;;20.60;99.90;;;;;;4995758;28;20030;-75
2022/04/10 10:51:50;;;;;;;4.95;1.33;;;20.60;99.90;;;;;;5003143;28;20030;-75
2022/04/10 10:54:31;;;;;;;6.95;1.25;;;20.50;99.90;;;;;;4983816;28;20482;-76
2022/04/10 10:56:58;;;;;;;2.25;1.25;;;20.50;99.90;;;;;;4984373;28;20069;-76
2022/04/10 10:59:33;;;;;;;3.83;1.30;;;20.40;99.90;;;;;;4984971;28;20113;-76
2022/04/10 11:02:06;;;;;;;2.97;1.00;;;20.40;99.90;;;;;;4977885;28;20077;-74
2022/04/10 11:04:50;;;;;;;4.88;1.02;;;20.40;99.90;;;;;;4975488;28;20041;-74
2022/04/10 11:07:21;;;;;;;4.65;1.13;;;20.30;99.90;;;;;;4972515;28;20101;-75
2022/04/10 11:09:54;;;;;;;6.18;1.05;;;20.30;99.90;;;;;;4971660;28;20038;-76
2022/04/10 11:12:28;;;;;;;5.32;0.90;;;20.30;99.90;;;;;;4972628;28;20490;-74
2022/04/10 11:14:56;;;;;;;5.25;0.82;;;20.20;99.90;;;;;;4971801;28;20031;-74
2022/04/10 11:17:33;;;;;;;2.38;0.90;;;20.20;99.90;;;;;;4972398;28;20030;-74
2022/04/10 11:20:05;;;;;;;4.57;1.02;;;20.20;99.90;;;;;;4972214;28;20058;-74
2022/04/10 11:22:46;;;;;;;4.10;0.90;;;20.20;99.90;;;;;;4970009;28;20054;-76
2022/04/10 11:25:14;;;;;;;5.47;1.33;;;20.20;99.90;;;;;;4975399;28;20038;-75
2022/04/10 11:27:46;;;;;;;3.50;0.98;;;20.10;99.90;;;;;;4971149;28;20097;-73
2022/04/10 11:30:16;;;;;;;5.95;1.67;;;20.10;99.90;;;;;;4970412;28;20030;-74
2022/04/10 11:32:49;;;;;;;6.65;1.23;;;20.00;99.90;;;;;;4971301;28;20046;-74
2022/04/10 11:35:24;;;;;;;2.15;1.70;;;20.00;99.90;;;;;;4974086;28;20518;-74
2022/04/10 11:37:54;;;;;;;5.47;2.13;;;20.00;99.90;;;;;;4975648;28;20086;-75
2022/04/10 11:40:24;;;;;;;4.22;1.75;;;20.00;99.90;;;;;;4974009;28;20497;-74
2022/04/10 11:42:54;;;;;;;3.53;1.58;;;19.90;99.90;;;;;;4974222;28;20126;-74
2022/04/10 11:45:24;;;;;;;8.30;1.95;;;19.90;99.90;;;;;;4971493;28;20030;-74
2022/04/10 11:47:51;;;;;;;5.88;2.30;;;19.90;99.90;;;;;;4973005;28;20408;-74
2022/04/10 11:50:23;;;;;;;6.05;1.90;;;19.90;99.90;;;;;;4974013;28;20094;-75
2022/04/10 11:53:05;;;;;;;8.98;2.17;;;19.90;99.90;;;;;;4969894;28;20485;-74
2022/04/10 11:55:38;;;;;;;3.53;1.67;;;19.80;99.90;;;;;;4971649;28;20056;-74
2022/04/10 11:58:21;;;;;;;4.95;2.35;;;19.70;99.90;;;;;;4969510;28;20053;-75
2022/04/10 12:00:53;;;;;;;5.78;2.33;;;19.70;99.90;;;;;;4972470;28;20022;-74
2022/04/10 12:03:23;;;;;;;7.88;3.33;;;19.70;99.90;;;;;;4972204;28;20058;-75
2022/04/10 12:05:51;;;;;;;13.35;3.63;;;19.70;99.90;;;;;;4975731;28;20033;-75
2022/04/10 12:08:19;;;;;;;7.85;3.50;;;19.70;99.90;;;;;;4983972;28;20149;-74
2022/04/10 12:11:01;;;;;;;10.45;4.03;;;19.60;99.90;;;;;;4980056;28;20031;-75
2022/04/10 12:13:42;;;;;;;7.65;2.15;;;19.60;99.90;;;;;;4979827;28;20121;-73
2022/04/10 12:16:17;;;;;;;10.43;2.25;;;19.60;99.90;;;;;;4978471;28;20034;-75
2022/04/10 12:18:49;;;;;;;5.00;2.33;;;19.50;99.90;;;;;;4972203;28;20067;-76
2022/04/10 12:21:18;;;;;;;7.60;2.70;;;19.50;99.90;;;;;;4972018;28;20059;-76
2022/04/10 12:23:48;;;;;;;15.57;2.42;;;19.40;99.90;;;;;;4980002;28;20030;-75
2022/04/10 12:26:16;;;;;;;7.70;2.33;;;19.40;99.90;;;;;;4972029;28;20089;-74
2022/04/10 12:28:44;;;;;;;5.03;2.20;;;19.30;99.90;;;;;;4976733;28;20030;-74
2022/04/10 12:31:12;;;;;;;4.53;1.77;;;19.30;99.90;;;;;;4982491;28;20414;-76
2022/04/10 12:33:46;;;;;;;5.32;1.60;;;19.30;99.90;;;;;;4968783;28;20125;-75
2022/04/10 12:36:28;;;;;;;4.15;1.13;;;19.20;99.90;;;;;;4971918;28;20037;-71
2022/04/10 12:39:00;;;;;;;5.40;1.80;;;19.20;99.90;;;;;;4976931;28;20038;-74
2022/04/10 12:41:33;;;;;;;5.40;1.83;;;19.20;99.90;;;;;;4972044;28;20033;-76
2022/04/10 12:44:06;;;;;;;5.43;2.42;;;19.10;99.90;;;;;;4972098;28;20038;-75
2022/04/10 12:46:38;;;;;;;3.13;1.52;;;19.10;99.90;;;;;;4971770;28;20039;-75
2022/04/10 12:49:16;;;;;;;5.53;1.83;;;19.00;99.90;;;;;;4979676;28;20034;-74
2022/04/10 12:52:04;;;;;;;5.72;1.70;;;19.00;99.90;;;;;;4988494;28;20034;-75
2022/04/10 12:54:41;;;;;;;3.55;1.85;;;19.00;99.90;;;;;;4974434;28;20088;-75
2022/04/10 12:57:12;;;;;;;3.42;1.48;;;19.00;99.90;;;;;;4973301;28;20085;-74
2022/04/10 12:59:49;;;;;;;4.38;1.88;;;18.90;99.90;;;;;;4983257;28;20109;-76
2022/04/10 13:02:30;;;;;;;5.75;1.67;;;18.90;99.90;;;;;;4982734;28;20030;-76